sensor_id;sensor_type;location;lat;lon;timestamp;P1;durP1;ratioP1;P2;durP2;ratioP2
13951;SDS011;39535;52.192;9.886;2022-09-24T00:01:21;3.80;;;3.50;;
13951;SDS011;39535;52.192;9.886;2022-09-24T00:03:49;3.80;;;3.27;;
13951;SDS011;39535;52.192;9.886;2022-09-24T00:06:17;3.97;;;3.40;;
13951;SDS011;39535;52.192;9.886;2022-09-24T00:08:44;3.47;;;3.27;;
13951;SDS011;39535;52.192;9.886;2022-09-24T00:11:11;3.20;;;3.00;;
13951;SDS011;39535;52.192;9.886;2022-09-24T00:13:38;2.70;;;2.50;;
13951;SDS011;39535;52.192;9.886;2022-09-24T00:16:08;3.27;;;3.07;;
13951;SDS011;39535;52.192;9.886;2022-09-24T00:18:36;3.00;;;2.80;;
13951;SDS011;39535;52.192;9.886;2022-09-24T00:21:09;3.50;;;3.30;;
13951;SDS011;39535;52.192;9.886;2022-09-24T00:23:37;3.57;;;2.67;;
13951;SDS011;39535;52.192;9.886;2022-09-24T00:26:03;3.00;;;2.80;;
13951;SDS011;39535;52.192;9.886;2022-09-24T00:28:48;3.30;;;3.10;;
13951;SDS011;39535;52.192;9.886;2022-09-24T00:31:16;3.27;;;3.07;;
13951;SDS011;39535;52.192;9.886;2022-09-24T00:33:42;2.90;;;2.70;;
13951;SDS011;39535;52.192;9.886;2022-09-24T00:36:09;3.03;;;2.83;;
13951;SDS011;39535;52.192;9.886;2022-09-24T00:38:35;5.90;;;2.60;;
13951;SDS011;39535;52.192;9.886;2022-09-24T00:41:02;4.57;;;2.70;;
13951;SDS011;39535;52.192;9.886;2022-09-24T00:43:30;2.77;;;2.57;;
13951;SDS011;39535;52.192;9.886;2022-09-24T00:46:01;3.30;;;2.63;;
13951;SDS011;39535;52.192;9.886;2022-09-24T00:48:35;4.47;;;2.77;;
13951;SDS011;39535;52.192;9.886;2022-09-24T00:51:04;2.60;;;2.40;;
13951;SDS011;39535;52.192;9.886;2022-09-24T00:53:32;2.90;;;2.40;;
13951;SDS011;39535;52.192;9.886;2022-09-24T00:55:59;2.20;;;2.10;;
13951;SDS011;39535;52.192;9.886;2022-09-24T00:58:28;3.17;;;2.20;;
13951;SDS011;39535;52.192;9.886;2022-09-24T01:00:56;2.37;;;2.27;;
13951;SDS011;39535;52.192;9.886;2022-09-24T01:03:26;2.17;;;2.00;;
13951;SDS011;39535;52.192;9.886;2022-09-24T01:05:56;2.60;;;2.40;;
13951;SDS011;39535;52.192;9.886;2022-09-24T01:08:23;4.23;;;2.00;;
13951;SDS011;39535;52.192;9.886;2022-09-24T01:10:54;3.20;;;2.23;;
13951;SDS011;39535;52.192;9.886;2022-09-24T01:13:35;2.03;;;1.93;;
13951;SDS011;39535;52.192;9.886;2022-09-24T01:16:10;2.63;;;2.23;;
13951;SDS011;39535;52.192;9.886;2022-09-24T01:18:43;4.30;;;3.33;;
13951;SDS011;39535;52.192;9.886;2022-09-24T01:21:23;3.47;;;3.17;;
13951;SDS011;39535;52.192;9.886;2022-09-24T01:27:01;3.30;;;3.03;;
13951;SDS011;39535;52.192;9.886;2022-09-24T01:29:35;3.43;;;3.13;;
13951;SDS011;39535;52.192;9.886;2022-09-24T01:32:17;4.33;;;4.00;;
13951;SDS011;39535;52.192;9.886;2022-09-24T01:34:49;5.37;;;4.73;;
13951;SDS011;39535;52.192;9.886;2022-09-24T01:37:22;4.90;;;4.60;;
13951;SDS011;39535;52.192;9.886;2022-09-24T01:39:52;5.20;;;4.70;;
13951;SDS011;39535;52.192;9.886;2022-09-24T01:42:21;5.30;;;4.90;;
13951;SDS011;39535;52.192;9.886;2022-09-24T01:44:52;3.30;;;3.10;;
13951;SDS011;39535;52.192;9.886;2022-09-24T01:47:21;4.80;;;4.50;;
13951;SDS011;39535;52.192;9.886;2022-09-24T01:49:52;4.87;;;4.47;;
13951;SDS011;39535;52.192;9.886;2022-09-24T01:52:20;5.27;;;4.87;;
13951;SDS011;39535;52.192;9.886;2022-09-24T01:54:50;5.77;;;4.80;;
13951;SDS011;39535;52.192;9.886;2022-09-24T01:57:20;4.73;;;4.33;;
13951;SDS011;39535;52.192;9.886;2022-09-24T01:59:50;5.17;;;4.77;;
13951;SDS011;39535;52.192;9.886;2022-09-24T02:02:23;5.10;;;4.53;;
13951;SDS011;39535;52.192;9.886;2022-09-24T02:04:55;4.27;;;3.97;;
13951;SDS011;39535;52.192;9.886;2022-09-24T02:07:25;4.30;;;4.00;;
13951;SDS011;39535;52.192;9.886;2022-09-24T02:09:58;4.47;;;4.07;;
13951;SDS011;39535;52.192;9.886;2022-09-24T02:12:25;5.17;;;4.27;;
13951;SDS011;39535;52.192;9.886;2022-09-24T02:14:56;4.27;;;3.97;;
13951;SDS011;39535;52.192;9.886;2022-09-24T02:17:28;4.43;;;4.03;;
13951;SDS011;39535;52.192;9.886;2022-09-24T02:20:00;4.00;;;3.70;;
13951;SDS011;39535;52.192;9.886;2022-09-24T02:22:30;3.83;;;3.53;;
13951;SDS011;39535;52.192;9.886;2022-09-24T02:24:58;4.00;;;3.70;;
13951;SDS011;39535;52.192;9.886;2022-09-24T02:27:29;6.67;;;3.90;;
13951;SDS011;39535;52.192;9.886;2022-09-24T02:29:57;4.07;;;3.77;;
13951;SDS011;39535;52.192;9.886;2022-09-24T02:32:25;6.60;;;4.93;;
13951;SDS011;39535;52.192;9.886;2022-09-24T02:34:56;4.97;;;4.57;;
13951;SDS011;39535;52.192;9.886;2022-09-24T02:37:26;4.63;;;4.17;;
13951;SDS011;39535;52.192;9.886;2022-09-24T02:39:54;5.30;;;4.90;;
13951;SDS011;39535;52.192;9.886;2022-09-24T02:42:20;4.90;;;4.40;;
13951;SDS011;39535;52.192;9.886;2022-09-24T02:44:48;5.37;;;4.97;;
13951;SDS011;39535;52.192;9.886;2022-09-24T02:47:16;6.00;;;5.00;;
13951;SDS011;39535;52.192;9.886;2022-09-24T02:49:43;6.73;;;6.07;;
13951;SDS011;39535;52.192;9.886;2022-09-24T02:52:09;5.13;;;4.77;;
13951;SDS011;39535;52.192;9.886;2022-09-24T02:54:36;5.03;;;4.63;;
13951;SDS011;39535;52.192;9.886;2022-09-24T02:57:02;5.50;;;5.10;;
13951;SDS011;39535;52.192;9.886;2022-09-24T02:59:29;4.83;;;4.40;;
13951;SDS011;39535;52.192;9.886;2022-09-24T03:01:55;5.17;;;4.87;;
13951;SDS011;39535;52.192;9.886;2022-09-24T03:04:23;4.37;;;4.00;;
13951;SDS011;39535;52.192;9.886;2022-09-24T03:06:50;4.70;;;4.30;;
13951;SDS011;39535;52.192;9.886;2022-09-24T03:09:16;4.57;;;4.27;;
13951;SDS011;39535;52.192;9.886;2022-09-24T03:11:43;4.50;;;4.20;;
13951;SDS011;39535;52.192;9.886;2022-09-24T03:14:10;4.93;;;4.53;;
13951;SDS011;39535;52.192;9.886;2022-09-24T03:16:36;4.80;;;4.50;;
13951;SDS011;39535;52.192;9.886;2022-09-24T03:19:03;4.87;;;4.57;;
13951;SDS011;39535;52.192;9.886;2022-09-24T03:21:32;4.43;;;4.13;;
13951;SDS011;39535;52.192;9.886;2022-09-24T03:23:59;5.00;;;4.70;;
13951;SDS011;39535;52.192;9.886;2022-09-24T03:26:25;4.97;;;4.67;;
13951;SDS011;39535;52.192;9.886;2022-09-24T03:28:52;4.37;;;4.07;;
13951;SDS011;39535;52.192;9.886;2022-09-24T03:31:18;4.27;;;3.87;;
13951;SDS011;39535;52.192;9.886;2022-09-24T03:33:44;3.73;;;3.40;;
13951;SDS011;39535;52.192;9.886;2022-09-24T03:36:14;6.30;;;3.90;;
13951;SDS011;39535;52.192;9.886;2022-09-24T03:38:45;4.47;;;4.10;;
13951;SDS011;39535;52.192;9.886;2022-09-24T03:41:13;3.57;;;3.37;;
13951;SDS011;39535;52.192;9.886;2022-09-24T03:43:41;4.47;;;4.07;;
13951;SDS011;39535;52.192;9.886;2022-09-24T03:46:08;5.73;;;3.93;;
13951;SDS011;39535;52.192;9.886;2022-09-24T03:48:37;4.87;;;4.53;;
13951;SDS011;39535;52.192;9.886;2022-09-24T03:51:05;4.87;;;4.47;;
13951;SDS011;39535;52.192;9.886;2022-09-24T03:53:32;7.33;;;5.80;;
13951;SDS011;39535;52.192;9.886;2022-09-24T03:56:00;5.60;;;5.03;;
13951;SDS011;39535;52.192;9.886;2022-09-24T03:58:27;5.60;;;5.20;;
13951;SDS011;39535;52.192;9.886;2022-09-24T04:00:56;5.27;;;4.97;;
13951;SDS011;39535;52.192;9.886;2022-09-24T04:03:23;5.40;;;4.93;;
13951;SDS011;39535;52.192;9.886;2022-09-24T04:05:50;6.43;;;4.63;;
13951;SDS011;39535;52.192;9.886;2022-09-24T04:08:17;5.47;;;4.53;;
13951;SDS011;39535;52.192;9.886;2022-09-24T04:10:44;4.13;;;3.80;;
13951;SDS011;39535;52.192;9.886;2022-09-24T04:13:12;6.07;;;3.83;;
13951;SDS011;39535;52.192;9.886;2022-09-24T04:15:38;4.00;;;3.70;;
13951;SDS011;39535;52.192;9.886;2022-09-24T04:18:05;3.77;;;3.50;;
13951;SDS011;39535;52.192;9.886;2022-09-24T04:20:32;4.20;;;3.73;;
13951;SDS011;39535;52.192;9.886;2022-09-24T04:22:58;4.30;;;4.00;;
13951;SDS011;39535;52.192;9.886;2022-09-24T04:25:26;5.57;;;5.17;;
13951;SDS011;39535;52.192;9.886;2022-09-24T04:27:54;5.80;;;5.37;;
13951;SDS011;39535;52.192;9.886;2022-09-24T04:30:24;6.27;;;5.73;;
13951;SDS011;39535;52.192;9.886;2022-09-24T04:32:51;6.07;;;5.67;;
13951;SDS011;39535;52.192;9.886;2022-09-24T04:35:18;5.97;;;5.33;;
13951;SDS011;39535;52.192;9.886;2022-09-24T04:37:45;6.50;;;6.00;;
13951;SDS011;39535;52.192;9.886;2022-09-24T04:40:12;6.33;;;5.73;;
13951;SDS011;39535;52.192;9.886;2022-09-24T04:42:40;5.90;;;5.40;;
13951;SDS011;39535;52.192;9.886;2022-09-24T04:45:09;5.30;;;4.90;;
13951;SDS011;39535;52.192;9.886;2022-09-24T04:47:38;4.40;;;4.13;;
13951;SDS011;39535;52.192;9.886;2022-09-24T04:50:06;4.90;;;4.40;;
13951;SDS011;39535;52.192;9.886;2022-09-24T04:52:33;4.80;;;4.50;;
13951;SDS011;39535;52.192;9.886;2022-09-24T04:55:00;5.40;;;4.90;;
13951;SDS011;39535;52.192;9.886;2022-09-24T04:57:27;4.80;;;4.30;;
13951;SDS011;39535;52.192;9.886;2022-09-24T05:00:00;4.50;;;4.20;;
13951;SDS011;39535;52.192;9.886;2022-09-24T05:02:26;4.47;;;4.10;;
13951;SDS011;39535;52.192;9.886;2022-09-24T05:04:54;4.63;;;4.07;;
13951;SDS011;39535;52.192;9.886;2022-09-24T05:07:21;4.90;;;4.10;;
13951;SDS011;39535;52.192;9.886;2022-09-24T05:09:47;4.80;;;4.47;;
13951;SDS011;39535;52.192;9.886;2022-09-24T05:12:14;5.07;;;4.67;;
13951;SDS011;39535;52.192;9.886;2022-09-24T05:14:40;4.77;;;4.37;;
13951;SDS011;39535;52.192;9.886;2022-09-24T05:17:07;5.83;;;4.37;;
13951;SDS011;39535;52.192;9.886;2022-09-24T05:19:33;5.07;;;4.67;;
13951;SDS011;39535;52.192;9.886;2022-09-24T05:22:01;4.83;;;4.43;;
13951;SDS011;39535;52.192;9.886;2022-09-24T05:24:27;5.13;;;4.73;;
13951;SDS011;39535;52.192;9.886;2022-09-24T05:26:54;7.30;;;4.30;;
13951;SDS011;39535;52.192;9.886;2022-09-24T05:29:36;4.73;;;4.43;;
13951;SDS011;39535;52.192;9.886;2022-09-24T05:32:04;5.20;;;4.37;;
13951;SDS011;39535;52.192;9.886;2022-09-24T05:34:32;4.23;;;3.93;;
13951;SDS011;39535;52.192;9.886;2022-09-24T05:37:00;4.87;;;4.50;;
13951;SDS011;39535;52.192;9.886;2022-09-24T05:39:28;5.17;;;4.67;;
13951;SDS011;39535;52.192;9.886;2022-09-24T05:41:54;4.63;;;4.07;;
13951;SDS011;39535;52.192;9.886;2022-09-24T05:44:21;4.90;;;4.50;;
13951;SDS011;39535;52.192;9.886;2022-09-24T05:46:48;4.27;;;3.97;;
13951;SDS011;39535;52.192;9.886;2022-09-24T05:49:15;5.20;;;3.90;;
13951;SDS011;39535;52.192;9.886;2022-09-24T05:51:42;5.87;;;4.70;;
13951;SDS011;39535;52.192;9.886;2022-09-24T05:54:10;4.73;;;4.40;;
13951;SDS011;39535;52.192;9.886;2022-09-24T05:56:36;6.60;;;6.00;;
13951;SDS011;39535;52.192;9.886;2022-09-24T05:59:03;8.00;;;7.30;;
13951;SDS011;39535;52.192;9.886;2022-09-24T06:01:30;7.00;;;6.40;;
13951;SDS011;39535;52.192;9.886;2022-09-24T06:03:56;7.27;;;6.77;;
13951;SDS011;39535;52.192;9.886;2022-09-24T06:06:23;6.27;;;5.77;;
13951;SDS011;39535;52.192;9.886;2022-09-24T06:08:50;4.10;;;3.80;;
13951;SDS011;39535;52.192;9.886;2022-09-24T06:11:18;4.23;;;3.83;;
13951;SDS011;39535;52.192;9.886;2022-09-24T06:13:46;4.00;;;3.70;;
13951;SDS011;39535;52.192;9.886;2022-09-24T06:16:13;3.37;;;3.17;;
13951;SDS011;39535;52.192;9.886;2022-09-24T06:18:40;3.60;;;3.00;;
13951;SDS011;39535;52.192;9.886;2022-09-24T06:21:09;3.50;;;3.27;;
13951;SDS011;39535;52.192;9.886;2022-09-24T06:23:36;3.27;;;2.93;;
13951;SDS011;39535;52.192;9.886;2022-09-24T06:26:04;3.30;;;3.10;;
13951;SDS011;39535;52.192;9.886;2022-09-24T06:28:33;4.13;;;3.80;;
13951;SDS011;39535;52.192;9.886;2022-09-24T06:31:00;3.73;;;3.53;;
13951;SDS011;39535;52.192;9.886;2022-09-24T06:33:27;4.33;;;4.00;;
13951;SDS011;39535;52.192;9.886;2022-09-24T06:35:57;3.67;;;3.30;;
13951;SDS011;39535;52.192;9.886;2022-09-24T06:38:25;10.10;;;5.80;;
13951;SDS011;39535;52.192;9.886;2022-09-24T06:40:56;4.80;;;4.40;;
13951;SDS011;39535;52.192;9.886;2022-09-24T06:43:24;5.83;;;5.33;;
13951;SDS011;39535;52.192;9.886;2022-09-24T06:45:54;6.60;;;5.83;;
13951;SDS011;39535;52.192;9.886;2022-09-24T06:48:21;7.80;;;6.40;;
13951;SDS011;39535;52.192;9.886;2022-09-24T06:50:48;7.23;;;6.63;;
13951;SDS011;39535;52.192;9.886;2022-09-24T06:53:15;6.13;;;5.60;;
13951;SDS011;39535;52.192;9.886;2022-09-24T06:55:42;5.50;;;5.10;;
13951;SDS011;39535;52.192;9.886;2022-09-24T06:58:09;5.97;;;5.47;;
13951;SDS011;39535;52.192;9.886;2022-09-24T07:00:37;7.97;;;7.37;;
13951;SDS011;39535;52.192;9.886;2022-09-24T07:03:06;7.57;;;7.07;;
13951;SDS011;39535;52.192;9.886;2022-09-24T07:05:33;7.60;;;7.00;;
13951;SDS011;39535;52.192;9.886;2022-09-24T07:08:00;8.00;;;7.23;;
13951;SDS011;39535;52.192;9.886;2022-09-24T07:10:26;8.13;;;7.50;;
13951;SDS011;39535;52.192;9.886;2022-09-24T07:12:53;7.40;;;6.90;;
13951;SDS011;39535;52.192;9.886;2022-09-24T07:15:20;7.57;;;7.07;;
13951;SDS011;39535;52.192;9.886;2022-09-24T07:17:46;7.53;;;7.03;;
13951;SDS011;39535;52.192;9.886;2022-09-24T07:20:14;7.10;;;6.60;;
13951;SDS011;39535;52.192;9.886;2022-09-24T07:22:40;8.17;;;7.00;;
13951;SDS011;39535;52.192;9.886;2022-09-24T07:25:08;7.20;;;6.70;;
13951;SDS011;39535;52.192;9.886;2022-09-24T07:27:35;7.63;;;7.03;;
13951;SDS011;39535;52.192;9.886;2022-09-24T07:30:03;7.30;;;6.80;;
13951;SDS011;39535;52.192;9.886;2022-09-24T07:32:31;8.07;;;7.47;;
13951;SDS011;39535;52.192;9.886;2022-09-24T07:34:57;7.50;;;7.00;;
13951;SDS011;39535;52.192;9.886;2022-09-24T07:37:25;7.43;;;6.93;;
13951;SDS011;39535;52.192;9.886;2022-09-24T07:39:51;7.87;;;7.27;;
13951;SDS011;39535;52.192;9.886;2022-09-24T07:42:18;8.00;;;7.40;;
13951;SDS011;39535;52.192;9.886;2022-09-24T07:44:45;8.17;;;7.50;;
13951;SDS011;39535;52.192;9.886;2022-09-24T07:47:13;8.73;;;8.07;;
13951;SDS011;39535;52.192;9.886;2022-09-24T07:49:40;7.73;;;7.23;;
13951;SDS011;39535;52.192;9.886;2022-09-24T07:52:07;8.87;;;8.27;;
13951;SDS011;39535;52.192;9.886;2022-09-24T07:54:35;8.27;;;7.67;;
13951;SDS011;39535;52.192;9.886;2022-09-24T07:57:02;9.13;;;8.20;;
13951;SDS011;39535;52.192;9.886;2022-09-24T07:59:34;9.03;;;8.43;;
13951;SDS011;39535;52.192;9.886;2022-09-24T08:02:00;7.70;;;7.20;;
13951;SDS011;39535;52.192;9.886;2022-09-24T08:04:27;7.73;;;7.07;;
13951;SDS011;39535;52.192;9.886;2022-09-24T08:06:54;8.57;;;7.87;;
13951;SDS011;39535;52.192;9.886;2022-09-24T08:09:20;8.27;;;7.53;;
13951;SDS011;39535;52.192;9.886;2022-09-24T08:11:48;8.43;;;7.83;;
13951;SDS011;39535;52.192;9.886;2022-09-24T08:14:15;8.20;;;7.60;;
13951;SDS011;39535;52.192;9.886;2022-09-24T08:16:41;8.73;;;8.03;;
13951;SDS011;39535;52.192;9.886;2022-09-24T08:19:08;8.17;;;7.57;;
13951;SDS011;39535;52.192;9.886;2022-09-24T08:21:38;8.77;;;8.17;;
13951;SDS011;39535;52.192;9.886;2022-09-24T08:24:04;8.20;;;7.60;;
13951;SDS011;39535;52.192;9.886;2022-09-24T08:26:31;9.00;;;8.40;;
13951;SDS011;39535;52.192;9.886;2022-09-24T08:28:58;9.90;;;9.10;;
13951;SDS011;39535;52.192;9.886;2022-09-24T08:31:25;9.97;;;9.30;;
13951;SDS011;39535;52.192;9.886;2022-09-24T08:33:51;10.30;;;9.40;;
13951;SDS011;39535;52.192;9.886;2022-09-24T08:36:18;10.47;;;9.67;;
13951;SDS011;39535;52.192;9.886;2022-09-24T08:38:44;11.23;;;10.43;;
13951;SDS011;39535;52.192;9.886;2022-09-24T08:41:18;10.63;;;9.93;;
13951;SDS011;39535;52.192;9.886;2022-09-24T08:43:59;10.47;;;9.57;;
13951;SDS011;39535;52.192;9.886;2022-09-24T08:46:30;9.93;;;9.17;;
13951;SDS011;39535;52.192;9.886;2022-09-24T08:49:19;10.17;;;9.47;;
13951;SDS011;39535;52.192;9.886;2022-09-24T08:51:53;9.77;;;9.07;;
13951;SDS011;39535;52.192;9.886;2022-09-24T08:54:26;10.23;;;9.33;;
13951;SDS011;39535;52.192;9.886;2022-09-24T08:56:54;10.23;;;9.20;;
13951;SDS011;39535;52.192;9.886;2022-09-24T08:59:25;9.40;;;8.70;;
13951;SDS011;39535;52.192;9.886;2022-09-24T09:01:55;10.67;;;9.90;;
13951;SDS011;39535;52.192;9.886;2022-09-24T09:04:41;9.57;;;8.90;;
13951;SDS011;39535;52.192;9.886;2022-09-24T09:07:19;9.50;;;8.70;;
13951;SDS011;39535;52.192;9.886;2022-09-24T09:09:49;9.00;;;8.40;;
13951;SDS011;39535;52.192;9.886;2022-09-24T09:12:20;9.57;;;8.67;;
13951;SDS011;39535;52.192;9.886;2022-09-24T09:14:54;9.30;;;8.67;;
13951;SDS011;39535;52.192;9.886;2022-09-24T09:17:31;10.03;;;9.33;;
13951;SDS011;39535;52.192;9.886;2022-09-24T09:20:06;11.33;;;10.53;;
13951;SDS011;39535;52.192;9.886;2022-09-24T09:22:38;10.30;;;9.50;;
13951;SDS011;39535;52.192;9.886;2022-09-24T09:25:12;9.60;;;8.80;;
13951;SDS011;39535;52.192;9.886;2022-09-24T09:27:43;9.90;;;9.03;;
13951;SDS011;39535;52.192;9.886;2022-09-24T09:30:13;9.60;;;8.80;;
13951;SDS011;39535;52.192;9.886;2022-09-24T09:32:47;9.77;;;8.97;;
13951;SDS011;39535;52.192;9.886;2022-09-24T09:35:27;9.67;;;8.97;;
13951;SDS011;39535;52.192;9.886;2022-09-24T09:38:02;10.83;;;9.93;;
13951;SDS011;39535;52.192;9.886;2022-09-24T09:40:37;10.57;;;8.93;;
13951;SDS011;39535;52.192;9.886;2022-09-24T09:43:09;10.57;;;9.03;;
13951;SDS011;39535;52.192;9.886;2022-09-24T09:45:40;10.73;;;9.83;;
13951;SDS011;39535;52.192;9.886;2022-09-24T09:48:11;12.37;;;11.37;;
13951;SDS011;39535;52.192;9.886;2022-09-24T09:50:41;11.90;;;11.10;;
13951;SDS011;39535;52.192;9.886;2022-09-24T09:53:18;19.33;;;11.00;;
13951;SDS011;39535;52.192;9.886;2022-09-24T09:55:49;10.40;;;9.60;;
13951;SDS011;39535;52.192;9.886;2022-09-24T09:58:18;11.40;;;10.60;;
13951;SDS011;39535;52.192;9.886;2022-09-24T10:00:49;12.50;;;11.30;;
13951;SDS011;39535;52.192;9.886;2022-09-24T10:03:21;13.07;;;12.03;;
13951;SDS011;39535;52.192;9.886;2022-09-24T10:05:53;14.33;;;12.97;;
13951;SDS011;39535;52.192;9.886;2022-09-24T10:08:22;14.33;;;13.20;;
13951;SDS011;39535;52.192;9.886;2022-09-24T10:10:53;13.80;;;12.70;;
13951;SDS011;39535;52.192;9.886;2022-09-24T10:13:20;12.70;;;11.80;;
13951;SDS011;39535;52.192;9.886;2022-09-24T10:15:47;13.73;;;12.73;;
13951;SDS011;39535;52.192;9.886;2022-09-24T10:18:16;13.77;;;12.47;;
13951;SDS011;39535;52.192;9.886;2022-09-24T10:20:53;12.93;;;11.87;;
13951;SDS011;39535;52.192;9.886;2022-09-24T10:23:22;13.03;;;11.83;;
13951;SDS011;39535;52.192;9.886;2022-09-24T10:25:57;14.53;;;13.33;;
13951;SDS011;39535;52.192;9.886;2022-09-24T10:28:25;15.33;;;14.03;;
13951;SDS011;39535;52.192;9.886;2022-09-24T10:31:12;15.17;;;13.70;;
13951;SDS011;39535;52.192;9.886;2022-09-24T10:33:42;15.00;;;13.80;;
13951;SDS011;39535;52.192;9.886;2022-09-24T10:36:12;14.20;;;13.20;;
13951;SDS011;39535;52.192;9.886;2022-09-24T10:38:40;14.87;;;13.63;;
13951;SDS011;39535;52.192;9.886;2022-09-24T10:41:14;14.60;;;13.50;;
13951;SDS011;39535;52.192;9.886;2022-09-24T10:43:51;15.23;;;13.80;;
13951;SDS011;39535;52.192;9.886;2022-09-24T10:49:15;16.30;;;15.10;;
13951;SDS011;39535;52.192;9.886;2022-09-24T10:51:53;17.10;;;14.93;;
13951;SDS011;39535;52.192;9.886;2022-09-24T10:54:31;16.23;;;14.90;;
13951;SDS011;39535;52.192;9.886;2022-09-24T10:57:11;16.27;;;14.83;;
13951;SDS011;39535;52.192;9.886;2022-09-24T10:59:50;16.70;;;15.33;;
13951;SDS011;39535;52.192;9.886;2022-09-24T11:02:29;17.17;;;14.57;;
13951;SDS011;39535;52.192;9.886;2022-09-24T11:05:20;14.83;;;13.67;;
13951;SDS011;39535;52.192;9.886;2022-09-24T11:07:51;16.60;;;15.20;;
13951;SDS011;39535;52.192;9.886;2022-09-24T11:10:30;17.20;;;15.80;;
13951;SDS011;39535;52.192;9.886;2022-09-24T11:13:09;16.47;;;15.07;;
13951;SDS011;39535;52.192;9.886;2022-09-24T11:15:49;15.07;;;13.73;;
13951;SDS011;39535;52.192;9.886;2022-09-24T11:18:32;16.00;;;14.60;;
13951;SDS011;39535;52.192;9.886;2022-09-24T11:21:12;16.13;;;14.73;;
13951;SDS011;39535;52.192;9.886;2022-09-24T11:26:57;14.23;;;12.80;;
13951;SDS011;39535;52.192;9.886;2022-09-24T11:29:37;13.70;;;12.50;;
13951;SDS011;39535;52.192;9.886;2022-09-24T11:32:17;12.53;;;11.53;;
13951;SDS011;39535;52.192;9.886;2022-09-24T11:35:00;12.77;;;11.77;;
13951;SDS011;39535;52.192;9.886;2022-09-24T11:37:43;12.03;;;11.00;;
13951;SDS011;39535;52.192;9.886;2022-09-24T11:40:26;11.87;;;10.87;;
13951;SDS011;39535;52.192;9.886;2022-09-24T11:43:06;12.33;;;11.43;;
13951;SDS011;39535;52.192;9.886;2022-09-24T11:45:50;13.43;;;12.40;;
13951;SDS011;39535;52.192;9.886;2022-09-24T11:48:29;12.63;;;11.40;;
13951;SDS011;39535;52.192;9.886;2022-09-24T11:51:12;12.67;;;11.67;;
13951;SDS011;39535;52.192;9.886;2022-09-24T11:53:49;13.50;;;12.30;;
13951;SDS011;39535;52.192;9.886;2022-09-24T11:56:19;12.00;;;11.10;;
13951;SDS011;39535;52.192;9.886;2022-09-24T11:58:50;12.57;;;11.67;;
13951;SDS011;39535;52.192;9.886;2022-09-24T12:01:25;14.57;;;13.17;;
13951;SDS011;39535;52.192;9.886;2022-09-24T12:03:57;12.53;;;11.43;;
13951;SDS011;39535;52.192;9.886;2022-09-24T12:06:31;11.47;;;10.63;;
13951;SDS011;39535;52.192;9.886;2022-09-24T12:09:02;11.57;;;10.57;;
13951;SDS011;39535;52.192;9.886;2022-09-24T12:11:39;12.60;;;11.57;;
13951;SDS011;39535;52.192;9.886;2022-09-24T12:14:12;12.17;;;11.23;;
13951;SDS011;39535;52.192;9.886;2022-09-24T12:16:44;12.50;;;11.40;;
13951;SDS011;39535;52.192;9.886;2022-09-24T12:19:15;11.20;;;10.40;;
13951;SDS011;39535;52.192;9.886;2022-09-24T12:21:49;10.50;;;9.70;;
13951;SDS011;39535;52.192;9.886;2022-09-24T12:24:19;11.00;;;10.20;;
13951;SDS011;39535;52.192;9.886;2022-09-24T12:26:51;11.57;;;10.60;;
13951;SDS011;39535;52.192;9.886;2022-09-24T12:29:28;11.20;;;10.27;;
13951;SDS011;39535;52.192;9.886;2022-09-24T12:32:19;12.00;;;11.10;;
13951;SDS011;39535;52.192;9.886;2022-09-24T12:35:10;12.93;;;11.93;;
13951;SDS011;39535;52.192;9.886;2022-09-24T12:37:50;12.10;;;11.10;;
13951;SDS011;39535;52.192;9.886;2022-09-24T12:40:29;12.43;;;11.43;;
13951;SDS011;39535;52.192;9.886;2022-09-24T12:43:16;11.80;;;10.80;;
13951;SDS011;39535;52.192;9.886;2022-09-24T12:45:51;11.50;;;10.67;;
13951;SDS011;39535;52.192;9.886;2022-09-24T12:48:20;10.10;;;9.30;;
13951;SDS011;39535;52.192;9.886;2022-09-24T12:50:54;10.43;;;9.63;;
13951;SDS011;39535;52.192;9.886;2022-09-24T12:53:27;10.60;;;9.70;;
13951;SDS011;39535;52.192;9.886;2022-09-24T12:55:58;10.80;;;9.90;;
13951;SDS011;39535;52.192;9.886;2022-09-24T12:58:27;9.37;;;8.67;;
13951;SDS011;39535;52.192;9.886;2022-09-24T13:01:05;10.23;;;9.33;;
13951;SDS011;39535;52.192;9.886;2022-09-24T13:03:34;11.77;;;10.77;;
13951;SDS011;39535;52.192;9.886;2022-09-24T13:06:02;12.33;;;11.43;;
13951;SDS011;39535;52.192;9.886;2022-09-24T13:08:46;11.70;;;10.70;;
13951;SDS011;39535;52.192;9.886;2022-09-24T13:11:23;10.80;;;9.73;;
13951;SDS011;39535;52.192;9.886;2022-09-24T13:13:57;11.50;;;10.50;;
13951;SDS011;39535;52.192;9.886;2022-09-24T13:16:26;11.57;;;10.73;;
13951;SDS011;39535;52.192;9.886;2022-09-24T13:18:53;10.73;;;9.90;;
13951;SDS011;39535;52.192;9.886;2022-09-24T13:21:24;10.23;;;9.43;;
13951;SDS011;39535;52.192;9.886;2022-09-24T13:23:54;9.67;;;8.77;;
13951;SDS011;39535;52.192;9.886;2022-09-24T13:26:25;10.47;;;9.63;;
13951;SDS011;39535;52.192;9.886;2022-09-24T13:28:54;10.47;;;9.57;;
13951;SDS011;39535;52.192;9.886;2022-09-24T13:31:25;9.20;;;8.50;;
13951;SDS011;39535;52.192;9.886;2022-09-24T13:33:57;9.53;;;8.83;;
13951;SDS011;39535;52.192;9.886;2022-09-24T13:36:28;11.03;;;9.83;;
13951;SDS011;39535;52.192;9.886;2022-09-24T13:39:04;9.40;;;8.70;;
13951;SDS011;39535;52.192;9.886;2022-09-24T13:41:39;11.83;;;10.80;;
13951;SDS011;39535;52.192;9.886;2022-09-24T13:44:14;11.63;;;10.73;;
13951;SDS011;39535;52.192;9.886;2022-09-24T13:46:45;12.03;;;11.20;;
13951;SDS011;39535;52.192;9.886;2022-09-24T13:49:18;12.77;;;11.60;;
13951;SDS011;39535;52.192;9.886;2022-09-24T13:51:50;12.87;;;11.87;;
13951;SDS011;39535;52.192;9.886;2022-09-24T13:54:24;12.27;;;11.37;;
13951;SDS011;39535;52.192;9.886;2022-09-24T13:56:58;10.63;;;9.90;;
13951;SDS011;39535;52.192;9.886;2022-09-24T13:59:32;13.03;;;11.97;;
13951;SDS011;39535;52.192;9.886;2022-09-24T14:01:59;13.07;;;11.97;;
13951;SDS011;39535;52.192;9.886;2022-09-24T14:04:25;11.77;;;10.90;;
13951;SDS011;39535;52.192;9.886;2022-09-24T14:06:53;12.43;;;11.43;;
13951;SDS011;39535;52.192;9.886;2022-09-24T14:09:25;11.90;;;10.90;;
13951;SDS011;39535;52.192;9.886;2022-09-24T14:11:54;10.93;;;10.10;;
13951;SDS011;39535;52.192;9.886;2022-09-24T14:14:23;11.63;;;10.70;;
13951;SDS011;39535;52.192;9.886;2022-09-24T14:16:52;10.57;;;9.77;;
13951;SDS011;39535;52.192;9.886;2022-09-24T14:19:20;10.03;;;9.27;;
13951;SDS011;39535;52.192;9.886;2022-09-24T14:21:48;12.17;;;11.17;;
13951;SDS011;39535;52.192;9.886;2022-09-24T14:24:18;11.43;;;10.43;;
13951;SDS011;39535;52.192;9.886;2022-09-24T14:26:50;11.90;;;10.70;;
13951;SDS011;39535;52.192;9.886;2022-09-24T14:29:20;12.10;;;11.03;;
13951;SDS011;39535;52.192;9.886;2022-09-24T14:31:50;12.27;;;11.37;;
13951;SDS011;39535;52.192;9.886;2022-09-24T14:34:22;11.83;;;10.83;;
13951;SDS011;39535;52.192;9.886;2022-09-24T14:36:52;11.60;;;10.73;;
13951;SDS011;39535;52.192;9.886;2022-09-24T14:39:20;10.10;;;9.30;;
13951;SDS011;39535;52.192;9.886;2022-09-24T14:41:53;10.33;;;9.63;;
13951;SDS011;39535;52.192;9.886;2022-09-24T14:44:21;11.27;;;10.47;;
13951;SDS011;39535;52.192;9.886;2022-09-24T14:46:51;12.00;;;10.63;;
13951;SDS011;39535;52.192;9.886;2022-09-24T14:49:21;11.87;;;10.97;;
13951;SDS011;39535;52.192;9.886;2022-09-24T14:51:50;11.70;;;10.80;;
13951;SDS011;39535;52.192;9.886;2022-09-24T14:54:19;12.07;;;10.33;;
13951;SDS011;39535;52.192;9.886;2022-09-24T14:56:53;12.17;;;11.20;;
13951;SDS011;39535;52.192;9.886;2022-09-24T14:59:26;12.03;;;11.13;;
13951;SDS011;39535;52.192;9.886;2022-09-24T15:01:54;13.70;;;12.53;;
13951;SDS011;39535;52.192;9.886;2022-09-24T15:04:30;13.20;;;12.00;;
13951;SDS011;39535;52.192;9.886;2022-09-24T15:06:57;12.57;;;11.57;;